createdAt,value
2022-08-01T00:01:26.515Z,3.55
2022-08-01T00:03:55.138Z,3.80
2022-08-01T00:06:23.571Z,3.53
2022-08-01T00:08:52.013Z,3.53
2022-08-01T00:11:21.921Z,3.13
2022-08-01T00:13:50.562Z,3.83
2022-08-01T00:16:19.054Z,3.95
2022-08-01T00:18:47.460Z,3.45
2022-08-01T00:21:16.076Z,3.97
2022-08-01T00:23:44.716Z,3.50
2022-08-01T00:26:13.276Z,4.00
2022-08-01T00:28:43.395Z,3.72
2022-08-01T00:31:11.846Z,3.75
2022-08-01T00:33:40.299Z,3.80
2022-08-01T00:36:09.065Z,3.65
2022-08-01T00:38:37.548Z,3.25
2022-08-01T00:41:06.015Z,4.15
2022-08-01T00:43:34.556Z,3.50
2022-08-01T00:46:04.437Z,3.47
2022-08-01T00:48:32.856Z,3.88
2022-08-01T00:51:01.378Z,3.42
2022-08-01T00:53:38.743Z,3.75
2022-08-01T00:56:18.593Z,3.65
2022-08-01T00:58:47.102Z,3.45
2022-08-01T01:01:21.873Z,3.65
2022-08-01T01:03:59.898Z,3.03
2022-08-01T01:06:38.040Z,3.50
2022-08-01T01:09:20.710Z,3.50
2022-08-01T01:11:59.912Z,3.35
2022-08-01T01:14:35.980Z,3.88
2022-08-01T01:17:10.128Z,3.15
2022-08-01T01:19:44.372Z,3.50
2022-08-01T01:22:28.242Z,4.05
2022-08-01T01:25:11.983Z,3.30
2022-08-01T01:27:51.914Z,3.40
2022-08-01T01:30:23.897Z,3.63
2022-08-01T01:32:56.352Z,3.53
2022-08-01T01:35:28.347Z,3.88
2022-08-01T01:38:00.999Z,3.28
2022-08-01T01:40:31.416Z,3.72
2022-08-01T01:43:00.704Z,4.03
2022-08-01T01:45:31.793Z,3.42
2022-08-01T01:48:01.505Z,3.22
2022-08-01T01:50:31.014Z,3.20
2022-08-01T01:53:01.625Z,3.75
2022-08-01T01:55:31.032Z,3.63
2022-08-01T01:58:01.572Z,3.63
2022-08-01T02:00:34.109Z,3.80
2022-08-01T02:03:06.879Z,3.60
2022-08-01T02:05:37.908Z,3.88
2022-08-01T02:08:07.975Z,3.50
2022-08-01T02:10:38.522Z,3.60
2022-08-01T02:13:08.908Z,3.35
2022-08-01T02:16:00.420Z,3.85
2022-08-01T02:18:28.233Z,4.57
2022-08-01T02:20:58.416Z,4.28
2022-08-01T02:23:32.789Z,4.13
2022-08-01T02:26:09.710Z,4.30
2022-08-01T02:28:45.814Z,4.68
2022-08-01T02:31:20.246Z,4.18
2022-08-01T02:33:54.329Z,4.75
2022-08-01T02:36:30.961Z,4.70
2022-08-01T02:39:04.572Z,5.60
2022-08-01T02:41:35.786Z,5.00
2022-08-01T02:44:07.475Z,4.32
2022-08-01T02:46:41.285Z,4.70
2022-08-01T02:49:13.370Z,5.50
2022-08-01T02:51:43.345Z,4.68
2022-08-01T02:54:13.123Z,4.40
2022-08-01T02:56:43.881Z,4.68
2022-08-01T02:59:16.370Z,4.95
2022-08-01T03:01:55.075Z,5.55
2022-08-01T03:04:25.082Z,4.75
2022-08-01T03:06:55.295Z,5.70
2022-08-01T03:09:25.349Z,5.15
2022-08-01T03:11:55.139Z,5.03
2022-08-01T03:14:26.092Z,4.88
2022-08-01T03:16:57.791Z,5.72
2022-08-01T03:19:29.776Z,4.60
2022-08-01T03:22:00.637Z,5.88
2022-08-01T03:24:30.741Z,5.60
2022-08-01T03:27:00.264Z,5.97
2022-08-01T03:29:31.532Z,5.40
2022-08-01T03:32:03.720Z,5.40
2022-08-01T03:34:32.618Z,5.70
2022-08-01T03:37:07.635Z,5.75
2022-08-01T03:39:42.313Z,5.47
2022-08-01T03:42:16.679Z,5.75
2022-08-01T03:44:52.091Z,4.95
2022-08-01T03:47:26.851Z,5.40
2022-08-01T03:49:57.299Z,5.20
2022-08-01T03:52:28.047Z,6.50
2022-08-01T03:54:58.605Z,5.72
2022-08-01T03:57:36.313Z,5.03
2022-08-01T04:00:10.107Z,5.68
2022-08-01T04:02:43.964Z,5.57
2022-08-01T04:05:13.103Z,5.38
2022-08-01T04:07:44.115Z,4.72
2022-08-01T04:10:13.351Z,4.68
2022-08-01T04:12:41.972Z,4.40
2022-08-01T04:15:10.883Z,5.13
2022-08-01T04:17:39.374Z,4.32
2022-08-01T04:20:10.410Z,5.63
2022-08-01T04:22:39.960Z,5.10
2022-08-01T04:25:14.835Z,4.63
2022-08-01T04:27:50.008Z,5.53
2022-08-01T04:32:52.059Z,4.72
2022-08-01T04:36:02.814Z,4.05
2022-08-01T04:38:15.364Z,4.38
2022-08-01T04:40:44.914Z,4.20
2022-08-01T04:43:15.142Z,4.82
2022-08-01T04:45:45.803Z,4.75
2022-08-01T04:48:15.708Z,5.30
2022-08-01T04:50:45.638Z,4.07
2022-08-01T04:53:18.940Z,4.72
2022-08-01T04:55:48.184Z,4.03
2022-08-01T04:58:18.729Z,4.00
2022-08-01T05:00:48.273Z,3.92
2022-08-01T05:03:16.826Z,4.20
2022-08-01T05:05:47.365Z,5.32
2022-08-01T05:08:15.828Z,4.22
2022-08-01T05:10:44.794Z,4.47
2022-08-01T05:13:13.229Z,4.60
2022-08-01T05:15:42.205Z,4.40
2022-08-01T05:18:10.753Z,3.90
2022-08-01T05:20:39.383Z,5.05
2022-08-01T05:23:15.829Z,3.78
2022-08-01T05:25:59.051Z,2.60
2022-08-01T05:28:27.618Z,2.03
2022-08-01T05:30:57.672Z,2.05
2022-08-01T05:33:26.069Z,2.30
2022-08-01T05:35:54.569Z,2.80
2022-08-01T05:38:24.532Z,3.50
2022-08-01T05:40:53.123Z,2.72
2022-08-01T05:43:24.415Z,2.08
2022-08-01T05:45:56.783Z,2.33
2022-08-01T05:48:25.280Z,2.45
2022-08-01T05:50:58.209Z,2.13
2022-08-01T05:53:28.899Z,1.88
2022-08-01T05:55:57.625Z,2.92
2022-08-01T05:58:26.175Z,2.22
2022-08-01T06:00:54.623Z,2.10
2022-08-01T06:03:23.035Z,2.53
2022-08-01T06:05:51.623Z,2.10
2022-08-01T06:08:20.088Z,2.45
2022-08-01T06:10:49.932Z,1.92
2022-08-01T06:13:20.057Z,2.38
2022-08-01T06:15:48.970Z,2.35
2022-08-01T06:18:18.018Z,2.70
2022-08-01T06:20:46.479Z,2.25
2022-08-01T06:23:32.318Z,2.22
2022-08-01T06:26:03.150Z,2.10
2022-08-01T06:28:31.812Z,2.15
2022-08-01T06:31:00.942Z,2.35
2022-08-01T06:33:29.852Z,2.20
2022-08-01T06:35:58.316Z,2.60
2022-08-01T06:38:26.773Z,2.45
2022-08-01T06:40:55.280Z,2.40
2022-08-01T06:43:25.188Z,2.00
2022-08-01T06:45:53.703Z,2.60
2022-08-01T06:48:22.180Z,2.60
2022-08-01T06:51:08.945Z,2.10
2022-08-01T06:53:38.816Z,2.45
2022-08-01T06:56:09.768Z,1.63
2022-08-01T06:58:39.921Z,1.65
2022-08-01T07:01:08.640Z,1.70
2022-08-01T07:03:53.537Z,1.65
2022-08-01T07:06:23.030Z,2.10
2022-08-01T07:08:51.514Z,1.98
2022-08-01T07:11:20.530Z,1.90
2022-08-01T07:13:50.645Z,1.98
2022-08-01T07:16:19.593Z,2.28
2022-08-01T07:18:47.999Z,2.30
2022-08-01T07:21:38.862Z,2.22
2022-08-01T07:24:09.243Z,2.40
2022-08-01T07:26:52.462Z,2.45
2022-08-01T07:29:26.059Z,1.98
2022-08-01T07:31:55.384Z,2.28
2022-08-01T07:34:24.326Z,2.47
2022-08-01T07:36:53.519Z,2.40
2022-08-01T07:39:22.311Z,2.17
2022-08-01T07:42:06.425Z,2.53
2022-08-01T07:44:38.994Z,2.80
2022-08-01T07:47:08.811Z,2.20
2022-08-01T07:49:40.297Z,2.08
2022-08-01T07:52:10.101Z,2.45
2022-08-01T07:54:39.025Z,2.45
2022-08-01T07:57:08.263Z,2.40
2022-08-01T07:59:38.168Z,1.98
2022-08-01T08:02:07.422Z,1.90
2022-08-01T08:04:36.298Z,2.20
2022-08-01T08:07:05.196Z,2.10
2022-08-01T08:09:37.248Z,2.10
2022-08-01T08:12:08.460Z,2.17
2022-08-01T08:14:39.062Z,2.10
2022-08-01T08:17:08.136Z,1.90
2022-08-01T08:19:39.270Z,2.25
2022-08-01T08:22:09.812Z,1.80
2022-08-01T08:24:46.141Z,2.15
2022-08-01T08:27:15.628Z,2.05
2022-08-01T08:29:45.581Z,1.92
2022-08-01T08:32:14.497Z,2.38
2022-08-01T08:34:43.411Z,2.33
2022-08-01T08:37:12.242Z,2.30
2022-08-01T08:39:41.369Z,2.10
2022-08-01T08:42:11.806Z,2.42
2022-08-01T08:44:43.401Z,2.10
2022-08-01T08:47:19.883Z,2.78
2022-08-01T08:49:50.677Z,2.10
2022-08-01T08:52:21.884Z,3.35
2022-08-01T08:54:52.057Z,2.20
2022-08-01T08:57:22.586Z,2.20
2022-08-01T08:59:53.196Z,2.40
2022-08-01T09:02:23.337Z,2.30
2022-08-01T09:04:53.143Z,2.25
2022-08-01T09:07:21.719Z,2.40
2022-08-01T09:09:51.587Z,2.15
2022-08-01T09:12:21.520Z,2.00
2022-08-01T09:14:51.395Z,1.98
2022-08-01T09:17:20.106Z,2.13
2022-08-01T09:19:54.460Z,1.60
2022-08-01T09:22:25.925Z,2.00
2022-08-01T09:25:03.135Z,1.95
2022-08-01T09:27:32.511Z,1.90
2022-08-01T09:30:11.866Z,1.70
2022-08-01T09:32:55.730Z,1.70
2022-08-01T09:35:31.994Z,1.60
2022-08-01T09:38:16.741Z,1.58
2022-08-01T09:40:58.949Z,1.73
2022-08-01T09:43:29.091Z,1.90
2022-08-01T09:45:58.412Z,1.77
2022-08-01T09:48:29.907Z,1.60
2022-08-01T09:51:07.402Z,2.00
2022-08-01T09:53:52.178Z,1.90
2022-08-01T09:56:23.755Z,1.90
2022-08-01T09:58:59.419Z,1.73
2022-08-01T10:01:36.535Z,1.67
2022-08-01T10:04:10.784Z,1.77
2022-08-01T10:06:43.820Z,1.50
2022-08-01T10:09:14.818Z,2.13
2022-08-01T10:11:45.301Z,2.00
2022-08-01T10:14:18.119Z,1.90
2022-08-01T10:16:53.531Z,1.92
2022-08-01T10:19:25.138Z,2.28
2022-08-01T10:22:00.435Z,1.90
2022-08-01T10:24:33.429Z,1.77
2022-08-01T10:27:08.396Z,2.10
2022-08-01T10:29:59.170Z,1.90
2022-08-01T10:32:33.975Z,1.75
2022-08-01T10:35:06.233Z,1.88
2022-08-01T10:37:51.956Z,1.63
2022-08-01T10:40:30.798Z,1.50
2022-08-01T10:43:00.996Z,1.50
2022-08-01T10:45:30.575Z,1.75
2022-08-01T10:48:06.793Z,1.77
2022-08-01T10:50:40.594Z,2.00
2022-08-01T10:53:23.276Z,1.77
2022-08-01T10:56:03.205Z,1.65
2022-08-01T10:58:42.752Z,1.70
2022-08-01T11:01:19.665Z,1.58
2022-08-01T11:04:01.247Z,1.60
2022-08-01T11:06:41.899Z,1.80
2022-08-01T11:09:36.340Z,2.00
2022-08-01T11:12:13.124Z,2.20
2022-08-01T11:15:29.576Z,1.90
2022-08-01T11:18:02.563Z,1.40
2022-08-01T11:20:34.013Z,1.92
2022-08-01T11:23:36.338Z,1.75
2022-08-01T11:26:15.023Z,1.38
2022-08-01T11:29:10.822Z,1.80
2022-08-01T11:31:37.843Z,2.17
2022-08-01T11:34:07.401Z,1.50
2022-08-01T11:36:58.136Z,1.90
2022-08-01T11:39:24.543Z,1.90
2022-08-01T11:41:55.774Z,1.95
2022-08-01T11:44:30.125Z,2.00
2022-08-01T11:47:09.317Z,1.65
2022-08-01T11:50:00.735Z,2.15
2022-08-01T11:52:31.010Z,1.90
2022-08-01T11:55:10.059Z,1.70
2022-08-01T11:57:41.145Z,2.28
2022-08-01T12:00:15.403Z,2.28
2022-08-01T12:02:46.422Z,2.20
2022-08-01T12:05:17.746Z,2.15
2022-08-01T12:07:47.653Z,1.80
2022-08-01T12:10:17.877Z,1.90
2022-08-01T12:12:49.587Z,1.92
2022-08-01T12:15:19.272Z,2.15
2022-08-01T12:17:58.933Z,2.00
2022-08-01T12:20:32.023Z,2.00
2022-08-01T12:23:02.272Z,2.00
2022-08-01T12:25:31.315Z,2.40
2022-08-01T12:28:03.940Z,2.00
2022-08-01T12:30:36.588Z,2.15
2022-08-01T12:33:07.380Z,1.80
2022-08-01T12:35:37.621Z,2.00
2022-08-01T12:38:10.467Z,1.60
2022-08-01T12:40:45.619Z,2.10
2022-08-01T12:43:27.960Z,2.70
2022-08-01T12:46:00.556Z,2.50
2022-08-01T12:48:30.199Z,2.50
2022-08-01T12:51:02.299Z,2.30
2022-08-01T12:53:40.358Z,2.30
2022-08-01T12:56:12.183Z,2.05
2022-08-01T12:58:42.375Z,1.92
2022-08-01T13:01:13.193Z,2.80
2022-08-01T13:03:42.427Z,2.42
2022-08-01T13:06:16.586Z,3.10
2022-08-01T13:08:47.163Z,2.22
2022-08-01T13:11:18.201Z,2.25
2022-08-01T13:13:49.924Z,2.25
2022-08-01T13:16:30.531Z,1.98
2022-08-01T13:19:07.967Z,1.98
2022-08-01T13:21:54.394Z,1.80
2022-08-01T13:24:28.198Z,2.03
2022-08-01T13:27:00.660Z,1.90
2022-08-01T13:29:35.130Z,2.60
2022-08-01T13:32:29.174Z,2.10
2022-08-01T13:35:04.423Z,2.20
2022-08-01T13:37:33.111Z,1.92
2022-08-01T13:40:01.707Z,2.50
2022-08-01T13:42:33.005Z,2.00
2022-08-01T13:45:03.780Z,1.80
2022-08-01T13:47:32.930Z,2.20
2022-08-01T13:50:04.088Z,2.20
2022-08-01T13:52:33.225Z,1.63
2022-08-01T13:55:02.292Z,1.85
2022-08-01T13:57:37.281Z,1.90
2022-08-01T14:00:10.888Z,1.90
2022-08-01T14:02:42.341Z,1.90
2022-08-01T14:05:11.147Z,1.80
2022-08-01T14:07:39.629Z,1.98
2022-08-01T14:10:19.435Z,2.20
2022-08-01T14:12:49.738Z,1.80
2022-08-01T14:15:39.272Z,2.05
2022-08-01T14:18:10.543Z,1.90
2022-08-01T14:20:40.699Z,2.08
2022-08-01T14:23:09.502Z,2.10
2022-08-01T14:26:03.261Z,2.22
2022-08-01T14:28:29.286Z,2.17
2022-08-01T14:31:00.316Z,2.00
2022-08-01T14:33:28.964Z,2.83
2022-08-01T14:36:05.267Z,1.73
2022-08-01T14:38:46.869Z,1.90
2022-08-01T14:41:15.708Z,2.00
2022-08-01T14:43:44.198Z,2.30
2022-08-01T14:46:14.523Z,1.90
2022-08-01T14:48:43.373Z,1.80
2022-08-01T14:51:11.959Z,2.20
2022-08-01T14:53:47.132Z,2.20
2022-08-01T14:56:19.749Z,1.90
2022-08-01T14:58:48.613Z,2.20
2022-08-01T15:01:19.215Z,2.20
2022-08-01T15:03:49.117Z,2.15
2022-08-01T15:06:17.583Z,2.20
2022-08-01T15:08:46.376Z,2.20
2022-08-01T15:11:14.902Z,1.77
2022-08-01T15:13:43.461Z,2.00
2022-08-01T15:16:12.384Z,2.50
2022-08-01T15:18:43.103Z,2.55
2022-08-01T15:21:17.172Z,3.63
2022-08-01T15:23:45.698Z,2.53
2022-08-01T15:26:14.853Z,4.43
2022-08-01T15:28:43.428Z,3.58
2022-08-01T15:31:14.235Z,3.28
2022-08-01T15:33:44.315Z,3.33
2022-08-01T15:36:15.438Z,2.70
2022-08-01T15:38:44.003Z,3.20
2022-08-01T15:41:12.517Z,4.60
2022-08-01T15:43:44.128Z,6.15
2022-08-01T15:46:13.354Z,6.00
2022-08-01T15:48:43.624Z,5.38
2022-08-01T15:51:12.311Z,5.47
2022-08-01T15:53:41.525Z,6.78
2022-08-01T15:56:10.157Z,6.50
2022-08-01T15:58:38.615Z,4.90
2022-08-01T16:01:07.075Z,5.65
2022-08-01T16:03:35.580Z,7.03
2022-08-01T16:06:05.699Z,5.72
2022-08-01T16:08:34.263Z,6.30
2022-08-01T16:11:03.312Z,5.00
2022-08-01T16:13:31.776Z,4.20
2022-08-01T16:16:00.300Z,3.70
2022-08-01T16:18:28.788Z,7.45
2022-08-01T16:20:58.878Z,6.55
2022-08-01T16:23:29.066Z,10.65
2022-08-01T16:25:57.564Z,7.47
2022-08-01T16:28:27.738Z,4.90
2022-08-01T16:31:16.693Z,3.33
2022-08-01T16:33:54.158Z,3.08
2022-08-01T16:36:25.247Z,2.35
2022-08-01T16:38:55.116Z,2.50
2022-08-01T16:41:23.688Z,2.30
2022-08-01T16:43:53.507Z,2.30
2022-08-01T16:46:25.115Z,2.33
2022-08-01T16:48:54.263Z,2.58
2022-08-01T16:51:22.895Z,3.20
2022-08-01T16:53:51.443Z,2.90
2022-08-01T16:56:21.602Z,3.00
2022-08-01T16:58:50.160Z,2.55
2022-08-01T17:01:58.685Z,2.60
2022-08-01T17:04:08.141Z,3.17
2022-08-01T17:06:36.631Z,4.15
2022-08-01T17:09:06.018Z,3.17
2022-08-01T17:11:36.273Z,3.35
2022-08-01T17:14:05.772Z,2.80
2022-08-01T17:16:34.302Z,10.55
2022-08-01T17:19:03.880Z,4.40
2022-08-01T17:21:32.376Z,2.90
2022-08-01T17:24:01.044Z,3.08
2022-08-01T17:26:29.489Z,3.00
2022-08-01T17:28:59.665Z,3.15
2022-08-01T17:31:28.122Z,3.38
2022-08-01T17:33:56.601Z,3.63
2022-08-01T17:36:25.228Z,3.00
2022-08-01T17:38:53.663Z,3.50
2022-08-01T17:41:22.192Z,3.10
2022-08-01T17:43:50.706Z,3.67
2022-08-01T17:46:20.543Z,3.60
2022-08-01T17:48:48.992Z,28.58
2022-08-01T17:51:22.491Z,5.38
2022-08-01T17:53:56.945Z,3.60
2022-08-01T17:56:26.876Z,3.33
2022-08-01T17:58:55.747Z,3.80
2022-08-01T18:01:26.502Z,3.50
2022-08-01T18:03:57.691Z,4.18
2022-08-01T18:06:27.377Z,3.28
2022-08-01T18:08:59.580Z,3.55
2022-08-01T18:11:37.180Z,3.28
2022-08-01T18:14:07.046Z,3.83
2022-08-01T18:16:36.964Z,3.50
2022-08-01T18:19:07.050Z,18.55
2022-08-01T18:21:38.645Z,4.43
2022-08-01T18:24:11.035Z,5.05
2022-08-01T18:26:39.545Z,4.70
2022-08-01T18:29:08.121Z,4.30
2022-08-01T18:31:37.967Z,3.20
2022-08-01T18:34:06.646Z,3.55
2022-08-01T18:36:35.235Z,3.70
2022-08-01T18:39:10.907Z,3.63
2022-08-01T18:41:40.245Z,4.03
2022-08-01T18:44:09.596Z,3.83
2022-08-01T18:46:40.713Z,5.00
2022-08-01T18:49:11.800Z,4.10
2022-08-01T18:51:44.559Z,4.30
2022-08-01T18:54:13.982Z,4.75
2022-08-01T18:56:43.366Z,7.68
2022-08-01T18:59:12.301Z,5.18
2022-08-01T19:01:42.622Z,4.60
2022-08-01T19:04:13.353Z,4.95
2022-08-01T19:06:42.140Z,9.43
2022-08-01T19:09:10.807Z,7.20
2022-08-01T19:11:39.564Z,5.70
2022-08-01T19:14:08.287Z,6.22
2022-08-01T19:16:36.862Z,5.80
2022-08-01T19:19:09.745Z,6.03
2022-08-01T19:21:44.657Z,5.55
2022-08-01T19:24:23.377Z,6.10
2022-08-01T19:26:54.642Z,5.80
2022-08-01T19:29:35.260Z,5.75
2022-08-01T19:32:07.186Z,5.82
2022-08-01T19:34:44.202Z,5.72
2022-08-01T19:37:13.461Z,7.40
2022-08-01T19:39:45.841Z,6.95
2022-08-01T19:42:14.793Z,9.60
2022-08-01T19:44:45.548Z,7.32
2022-08-01T19:47:15.270Z,6.57
2022-08-01T19:49:45.425Z,6.22
2022-08-01T19:52:16.357Z,7.70
2022-08-01T19:54:46.309Z,6.85
2022-08-01T19:57:16.856Z,12.85
2022-08-01T19:59:47.682Z,10.75
2022-08-01T20:02:19.331Z,10.15
2022-08-01T20:04:49.936Z,12.63
2022-08-01T20:07:18.835Z,13.23
2022-08-01T20:09:54.275Z,10.02
2022-08-01T20:12:23.882Z,11.05
2022-08-01T20:14:53.887Z,8.88
2022-08-01T20:17:23.112Z,7.68
2022-08-01T20:19:53.404Z,8.75
2022-08-01T20:22:29.439Z,9.77
2022-08-01T20:25:00.411Z,9.55
2022-08-01T20:27:32.041Z,9.90
2022-08-01T20:30:01.699Z,8.55
2022-08-01T20:32:34.211Z,7.15
2022-08-01T20:35:06.590Z,7.00
2022-08-01T20:38:05.871Z,7.13
2022-08-01T20:40:28.559Z,6.53
2022-08-01T20:42:58.108Z,10.27
2022-08-01T20:45:27.992Z,6.95
2022-08-01T20:47:59.539Z,6.40
2022-08-01T20:50:54.090Z,6.10
2022-08-01T20:53:24.022Z,6.75
2022-08-01T20:56:00.858Z,6.20
2022-08-01T20:58:38.354Z,5.75
2022-08-01T21:01:09.611Z,5.65
2022-08-01T21:03:43.556Z,6.13
2022-08-01T21:06:15.317Z,5.70
2022-08-01T21:08:45.829Z,5.38
2022-08-01T21:11:20.931Z,5.05
2022-08-01T21:13:50.515Z,5.88
2022-08-01T21:16:27.607Z,5.63
2022-08-01T21:21:56.031Z,8.57
2022-08-01T21:24:28.983Z,6.25
2022-08-01T21:26:58.881Z,5.63
2022-08-01T21:29:27.876Z,5.70
2022-08-01T21:32:10.423Z,5.75
2022-08-01T21:34:40.507Z,5.63
2022-08-01T21:37:11.209Z,5.75
2022-08-01T21:39:41.520Z,5.78
2022-08-01T21:42:11.292Z,6.03
2022-08-01T21:44:46.068Z,5.47
2022-08-01T21:47:16.842Z,5.93
2022-08-01T21:49:45.384Z,5.88
2022-08-01T21:52:21.534Z,6.05
2022-08-01T21:55:01.971Z,5.60
2022-08-01T21:57:43.821Z,6.45
2022-08-01T22:00:25.711Z,6.82
2022-08-01T22:03:02.146Z,7.35
2022-08-01T22:05:49.916Z,6.68
2022-08-01T22:08:28.929Z,7.93
2022-08-01T22:11:00.665Z,6.63
2022-08-01T22:13:29.361Z,7.00
2022-08-01T22:15:58.995Z,5.80
2022-08-01T22:18:28.880Z,5.90
2022-08-01T22:20:57.735Z,6.50
2022-08-01T22:23:28.039Z,6.45
2022-08-01T22:25:57.368Z,6.30
2022-08-01T22:28:25.840Z,6.00
2022-08-01T22:30:54.688Z,6.40
2022-08-01T22:33:23.105Z,6.30
2022-08-01T22:35:53.764Z,5.90
2022-08-01T22:38:23.838Z,5.25
2022-08-01T22:40:55.465Z,5.10
2022-08-01T22:43:31.395Z,5.57
2022-08-01T22:46:17.200Z,5.37
2022-08-01T22:48:50.924Z,5.47
2022-08-01T22:51:43.206Z,5.47
2022-08-01T22:54:15.062Z,5.45
2022-08-01T22:56:55.923Z,5.00
2022-08-01T22:59:42.669Z,6.05
2022-08-01T23:02:17.411Z,7.90
2022-08-01T23:04:48.164Z,8.10
2022-08-01T23:07:21.168Z,7.05
2022-08-01T23:09:53.822Z,6.18
2022-08-01T23:12:29.000Z,6.00
2022-08-01T23:15:00.190Z,6.38
2022-08-01T23:17:31.309Z,6.20
2022-08-01T23:20:01.626Z,5.13
2022-08-01T23:22:34.029Z,5.82
2022-08-01T23:25:07.057Z,5.18
2022-08-01T23:27:55.877Z,5.47
2022-08-01T23:30:31.220Z,5.10
2022-08-01T23:33:00.774Z,6.15
2022-08-01T23:35:30.165Z,5.40
2022-08-01T23:38:02.702Z,5.68
2022-08-01T23:40:32.988Z,4.35
2022-08-01T23:43:04.278Z,5.05
2022-08-01T23:46:02.901Z,5.15
2022-08-01T23:48:22.129Z,5.00
2022-08-01T23:50:52.434Z,5.50
2022-08-01T23:53:20.873Z,5.35
2022-08-01T23:55:49.288Z,5.47
2022-08-01T23:58:19.784Z,5.78
